Details From CYHY - Hay River
To CYSF - Stony Rapids
Flight Number -
Tags Generated
Created
Modified
Stats Distance 313 nm / 580 km
Max Altitude 0 ft / 0 m
Waypoints 2
Social Downloads 0
Likes 0
Share VATSIM

Download

Looking for another format? Having issues loading an existing format? Contact us
Advertisement - Login to hide

Notes

Generated

Route

CYHY CYSF

ID Type Via Altitude Latitude Longitude Leg Dist Tot Dist Heading (true) Name
O CYHY APT - 0 ft / 0 m 60.83944˚ -115.78944˚ - 0 nm - -
O CYSF APT - 0 ft / 0 m 59.25236˚ -105.82838˚ 313 nm 313 nm 103° / 112° -

Altitude Profile

Advertisement - Login to hide

Weather


0- 5 10 15 20 25 30 35+ Temperature / ° C

Clouds and Precipitation
Forecast for 2017-12-11 06:00 UTC. Updated an hour ago

Ground ~20,000 ft ~40,000 ft Winds

CYHY

Details ICAO CYHY (YHY)
Name HAY RIVER
Region Canada
Timezone America/Yellowknife (UTC-7.0)
Stats Elevation 543 ft / 166 m (AMSL)
Location 60.840621° -115.784243°
Runways 2
Magnetic Variation 16.962° E

METAR

CYHY 110200Z 08005KT 1 1/2SM -SN FEW010 OVC035 M08/M09 A3014 RMK SC1SC7 SLP222

Decode

TAF

TAF AMD TAF AMD CYHY 110209Z 1102/1112 VRB03KT 11/2SM -SHSN VV010 TEMPO 1102/1104 P6SM -SN FEW010 OVC040 FM110400 VRB03KT 4SM -SN BKN008 OVC025 TEMPO 1104/1108 P6SM NSW SCT008 BKN025 FM110800 VRB03KT P6SM FEW006 PROB30 1108/1112 1SM BR BKN004 RMK NXT FCST BY 110600Z

Decode

Departure Runways

ID Width Length Bearing (true) Bearing (mag) Surface Threshold Offset Overrun Length
04 150 ft / 46 m 4,043 ft / 1,232 m 66.34° 49.38° Dirt 0 ft / 0 m 0 ft / 0 m
13 150 ft / 46 m 6,056 ft / 1,846 m 156.90° 139.94° Asphalt 0 ft / 0 m 0 ft / 0 m
22 150 ft / 46 m 4,043 ft / 1,232 m 246.36° 229.40° Dirt 0 ft / 0 m 0 ft / 0 m
31 150 ft / 46 m 6,056 ft / 1,846 m 336.92° 319.96° Asphalt 0 ft / 0 m 0 ft / 0 m

CYSF

Details ICAO CYSF (YSF)
Name Stony Rapids
Region Canada
Timezone America/Regina (UTC-6.0)
Stats Elevation 805 ft / 245 m (AMSL)
Location 59.250340° -105.841339°
Runways 1
Magnetic Variation 10.155° E

METAR

CYSF 110232Z AUTO 34006KT 9SM OVC016 M11/M14 A3013 RMK SLP229

Decode

TAF

TAF CYSF 102340Z 1100/1112 27005KT P6SM -SN FEW008 BKN015 TEMPO 1100/1108 P6SM NSW SCT015 BKN025 PROB30 1103/1108 BKN006 FM110800 VRB03KT P6SM FEW012 PROB30 1108/1112 1/2SM FZFG RMK FCST BASED ON AUTO OBS. NXT FCST BY 110600Z

Decode

Destination Runways

ID Width Length Bearing (true) Bearing (mag) Surface Threshold Offset Overrun Length
06 98 ft / 30 m 5,055 ft / 1,541 m 253.01° 242.86° Asphalt 0 ft / 0 m 0 ft / 0 m
24 98 ft / 30 m 5,055 ft / 1,541 m 72.99° 62.84° Asphalt 0 ft / 0 m 0 ft / 0 m